sensor_id;sensor_type;location;lat;lon;timestamp;pressure;altitude;pressure_sealevel;temperature;humidity
51528;BME280;37612;51.768;21.590;2023-04-24T00:03:18;99223.90;;;11.30;54.65
51528;BME280;37612;51.768;21.590;2023-04-24T00:07:22;99217.94;;;11.24;55.26
51528;BME280;37612;51.768;21.590;2023-04-24T00:11:24;99213.86;;;11.16;55.08
51528;BME280;37612;51.768;21.590;2023-04-24T00:15:26;99210.67;;;11.11;55.35
51528;BME280;37612;51.768;21.590;2023-04-24T00:19:29;99219.55;;;11.09;55.87
51528;BME280;37612;51.768;21.590;2023-04-24T00:23:31;99214.28;;;11.05;55.85
51528;BME280;37612;51.768;21.590;2023-04-24T00:27:33;99208.20;;;11.00;56.05
51528;BME280;37612;51.768;21.590;2023-04-24T00:31:37;99202.55;;;10.96;56.27
51528;BME280;37612;51.768;21.590;2023-04-24T00:35:42;99206.94;;;10.94;56.24
51528;BME280;37612;51.768;21.590;2023-04-24T00:39:44;99204.64;;;10.95;56.27
51528;BME280;37612;51.768;21.590;2023-04-24T00:43:46;99204.42;;;10.94;56.61
51528;BME280;37612;51.768;21.590;2023-04-24T00:47:48;99195.84;;;10.91;56.31
51528;BME280;37612;51.768;21.590;2023-04-24T00:51:51;99193.77;;;10.87;56.76
51528;BME280;37612;51.768;21.590;2023-04-24T00:55:53;99194.27;;;10.80;56.96
51528;BME280;37612;51.768;21.590;2023-04-24T00:59:56;99197.11;;;10.74;57.07
51528;BME280;37612;51.768;21.590;2023-04-24T01:03:58;99195.52;;;10.67;57.34
51528;BME280;37612;51.768;21.590;2023-04-24T01:08:01;99192.13;;;10.60;57.64
51528;BME280;37612;51.768;21.590;2023-04-24T01:12:03;99190.00;;;10.55;57.94
51528;BME280;37612;51.768;21.590;2023-04-24T01:16:05;99191.98;;;10.50;58.14
51528;BME280;37612;51.768;21.590;2023-04-24T01:20:08;99188.00;;;10.42;58.50
51528;BME280;37612;51.768;21.590;2023-04-24T01:24:10;99189.29;;;10.33;58.81
51528;BME280;37612;51.768;21.590;2023-04-24T01:28:12;99190.92;;;10.25;59.45
51528;BME280;37612;51.768;21.590;2023-04-24T01:32:15;99191.34;;;10.15;59.63
51528;BME280;37612;51.768;21.590;2023-04-24T01:36:19;99189.16;;;10.08;60.19
51528;BME280;37612;51.768;21.590;2023-04-24T01:40:21;99180.25;;;10.05;60.19
51528;BME280;37612;51.768;21.590;2023-04-24T01:44:24;99171.98;;;10.03;60.23
51528;BME280;37612;51.768;21.590;2023-04-24T01:48:26;99171.88;;;10.03;60.43
51528;BME280;37612;51.768;21.590;2023-04-24T01:52:29;99168.46;;;9.98;60.78
51528;BME280;37612;51.768;21.590;2023-04-24T01:56:36;99163.61;;;9.93;60.46
51528;BME280;37612;51.768;21.590;2023-04-24T02:00:41;99162.33;;;9.88;61.20
51528;BME280;37612;51.768;21.590;2023-04-24T02:04:44;99158.38;;;9.86;62.32
51528;BME280;37612;51.768;21.590;2023-04-24T02:08:46;99156.09;;;9.87;61.71
51528;BME280;37612;51.768;21.590;2023-04-24T02:12:48;99159.13;;;9.88;61.64
51528;BME280;37612;51.768;21.590;2023-04-24T02:16:50;99159.08;;;9.91;61.46
51528;BME280;37612;51.768;21.590;2023-04-24T02:20:52;99157.42;;;9.96;62.56
51528;BME280;37612;51.768;21.590;2023-04-24T02:24:55;99151.94;;;10.04;62.08
51528;BME280;37612;51.768;21.590;2023-04-24T02:28:57;99147.71;;;10.13;62.81
51528;BME280;37612;51.768;21.590;2023-04-24T02:32:59;99140.09;;;10.18;63.13
51528;BME280;37612;51.768;21.590;2023-04-24T02:37:01;99130.42;;;10.20;62.79
51528;BME280;37612;51.768;21.590;2023-04-24T02:41:03;99130.10;;;10.20;62.67
51528;BME280;37612;51.768;21.590;2023-04-24T02:45:08;99126.11;;;10.17;62.53
51528;BME280;37612;51.768;21.590;2023-04-24T02:49:10;99118.80;;;10.11;62.93
51528;BME280;37612;51.768;21.590;2023-04-24T02:53:13;99118.55;;;10.06;63.01
51528;BME280;37612;51.768;21.590;2023-04-24T02:57:15;99122.98;;;10.01;63.07
51528;BME280;37612;51.768;21.590;2023-04-24T03:01:17;99125.38;;;9.96;63.21
51528;BME280;37612;51.768;21.590;2023-04-24T03:05:20;99123.14;;;9.89;63.46
51528;BME280;37612;51.768;21.590;2023-04-24T03:09:22;99121.96;;;9.84;63.19
51528;BME280;37612;51.768;21.590;2023-04-24T03:13:24;99118.60;;;9.84;63.41
51528;BME280;37612;51.768;21.590;2023-04-24T03:17:26;99116.96;;;9.87;63.80
51528;BME280;37612;51.768;21.590;2023-04-24T03:21:28;99115.78;;;9.90;63.78
51528;BME280;37612;51.768;21.590;2023-04-24T03:25:30;99113.70;;;9.91;64.21
51528;BME280;37612;51.768;21.590;2023-04-24T03:29:35;99114.71;;;9.94;63.99
51528;BME280;37612;51.768;21.590;2023-04-24T03:34:12;99117.38;;;9.96;65.05
51528;BME280;37612;51.768;21.590;2023-04-24T03:38:16;99114.77;;;10.02;64.94
51528;BME280;37612;51.768;21.590;2023-04-24T03:42:18;99116.14;;;10.09;65.01
51528;BME280;37612;51.768;21.590;2023-04-24T03:46:30;99113.52;;;10.16;65.17
51528;BME280;37612;51.768;21.590;2023-04-24T03:50:33;99114.53;;;10.27;64.32
51528;BME280;37612;51.768;21.590;2023-04-24T03:54:35;99111.42;;;10.36;64.81
51528;BME280;37612;51.768;21.590;2023-04-24T03:58:37;99117.77;;;10.40;64.62
51528;BME280;37612;51.768;21.590;2023-04-24T04:02:39;99112.69;;;10.41;64.28
51528;BME280;37612;51.768;21.590;2023-04-24T04:06:42;99115.21;;;10.39;64.28
51528;BME280;37612;51.768;21.590;2023-04-24T04:10:45;99118.26;;;10.35;64.53
51528;BME280;37612;51.768;21.590;2023-04-24T04:14:47;99126.10;;;10.33;64.74
51528;BME280;37612;51.768;21.590;2023-04-24T04:18:50;99141.31;;;10.36;64.85
51528;BME280;37612;51.768;21.590;2023-04-24T04:22:52;99142.31;;;10.42;65.07
51528;BME280;37612;51.768;21.590;2023-04-24T04:26:54;99135.35;;;10.49;65.39
51528;BME280;37612;51.768;21.590;2023-04-24T04:30:58;99139.02;;;10.57;64.98
51528;BME280;37612;51.768;21.590;2023-04-24T04:35:00;99133.02;;;10.67;65.33
51528;BME280;37612;51.768;21.590;2023-04-24T04:39:06;99133.25;;;10.75;65.05
51528;BME280;37612;51.768;21.590;2023-04-24T04:43:51;99131.42;;;10.81;65.49
51528;BME280;37612;51.768;21.590;2023-04-24T04:48:14;99129.59;;;10.86;65.10
51528;BME280;37612;51.768;21.590;2023-04-24T04:52:21;99127.95;;;10.96;64.93
51528;BME280;37612;51.768;21.590;2023-04-24T04:56:27;99127.66;;;11.10;65.08
51528;BME280;37612;51.768;21.590;2023-04-24T05:00:29;99125.98;;;11.25;64.51
51528;BME280;37612;51.768;21.590;2023-04-24T05:04:38;99130.43;;;11.30;64.33
51528;BME280;37612;51.768;21.590;2023-04-24T05:08:41;99127.84;;;11.28;64.74
51528;BME280;37612;51.768;21.590;2023-04-24T05:12:44;99126.77;;;11.27;64.55
51528;BME280;37612;51.768;21.590;2023-04-24T05:16:46;99125.02;;;11.32;64.53
51528;BME280;37612;51.768;21.590;2023-04-24T05:20:50;99123.52;;;11.36;64.49
51528;BME280;37612;51.768;21.590;2023-04-24T05:25:05;99119.96;;;11.39;64.60
51528;BME280;37612;51.768;21.590;2023-04-24T05:29:14;99116.25;;;11.43;64.48
51528;BME280;37612;51.768;21.590;2023-04-24T05:33:40;99116.64;;;11.52;64.65
51528;BME280;37612;51.768;21.590;2023-04-24T05:37:44;99120.08;;;11.62;64.55
51528;BME280;37612;51.768;21.590;2023-04-24T05:42:08;99115.80;;;11.76;64.87
51528;BME280;37612;51.768;21.590;2023-04-24T05:46:11;99114.62;;;11.85;64.38
51528;BME280;37612;51.768;21.590;2023-04-24T05:50:14;99116.59;;;11.93;64.07
51528;BME280;37612;51.768;21.590;2023-04-24T05:54:19;99108.65;;;12.14;63.93
51528;BME280;37612;51.768;21.590;2023-04-24T05:58:32;99105.92;;;12.31;64.20
51528;BME280;37612;51.768;21.590;2023-04-24T06:02:35;99105.43;;;12.42;63.83
51528;BME280;37612;51.768;21.590;2023-04-24T06:06:37;99106.46;;;12.51;63.52
51528;BME280;37612;51.768;21.590;2023-04-24T06:10:42;99100.72;;;12.61;63.36
51528;BME280;37612;51.768;21.590;2023-04-24T06:14:46;99102.02;;;12.74;63.40
51528;BME280;37612;51.768;21.590;2023-04-24T06:18:49;99097.05;;;12.90;63.35
51528;BME280;37612;51.768;21.590;2023-04-24T06:22:53;99093.52;;;13.06;62.84
51528;BME280;37612;51.768;21.590;2023-04-24T06:26:55;99089.50;;;13.18;62.53
51528;BME280;37612;51.768;21.590;2023-04-24T06:31:01;99086.21;;;13.29;62.18
51528;BME280;37612;51.768;21.590;2023-04-24T06:35:04;99084.48;;;13.41;61.80
51528;BME280;37612;51.768;21.590;2023-04-24T06:39:10;99081.09;;;13.56;62.19
51528;BME280;37612;51.768;21.590;2023-04-24T06:43:13;99075.54;;;13.77;62.05
51528;BME280;37612;51.768;21.590;2023-04-24T06:47:18;99073.94;;;14.13;61.43
51528;BME280;37612;51.768;21.590;2023-04-24T06:51:25;99070.77;;;14.73;61.47
51528;BME280;37612;51.768;21.590;2023-04-24T06:55:29;99067.38;;;15.35;60.39
51528;BME280;37612;51.768;21.590;2023-04-24T06:59:38;99069.61;;;16.13;59.55
51528;BME280;37612;51.768;21.590;2023-04-24T07:03:40;99072.05;;;16.33;58.86
51528;BME280;37612;51.768;21.590;2023-04-24T07:07:43;99072.90;;;16.92;57.73
51528;BME280;37612;51.768;21.590;2023-04-24T07:11:46;99071.41;;;17.50;56.35
51528;BME280;37612;51.768;21.590;2023-04-24T07:15:48;99068.52;;;17.86;55.48
51528;BME280;37612;51.768;21.590;2023-04-24T07:19:52;99069.98;;;18.02;54.98
51528;BME280;37612;51.768;21.590;2023-04-24T07:23:54;99069.54;;;18.09;54.09
51528;BME280;37612;51.768;21.590;2023-04-24T07:27:58;99068.20;;;18.32;54.02
51528;BME280;37612;51.768;21.590;2023-04-24T07:32:00;99060.20;;;18.61;53.76
51528;BME280;37612;51.768;21.590;2023-04-24T07:36:02;99060.17;;;18.95;52.86
51528;BME280;37612;51.768;21.590;2023-04-24T07:40:06;99064.84;;;19.21;52.61
51528;BME280;37612;51.768;21.590;2023-04-24T07:44:10;99067.05;;;19.46;52.10
51528;BME280;37612;51.768;21.590;2023-04-24T07:48:13;99066.52;;;19.70;51.07
51528;BME280;37612;51.768;21.590;2023-04-24T07:52:18;99064.00;;;19.89;50.14
51528;BME280;37612;51.768;21.590;2023-04-24T07:56:21;99064.27;;;20.06;49.86
51528;BME280;37612;51.768;21.590;2023-04-24T08:00:24;99067.02;;;20.26;49.58
51528;BME280;37612;51.768;21.590;2023-04-24T08:04:26;99060.72;;;20.49;49.12
51528;BME280;37612;51.768;21.590;2023-04-24T08:08:29;99058.06;;;20.68;48.26
51528;BME280;37612;51.768;21.590;2023-04-24T08:12:39;99056.23;;;20.76;47.71
51528;BME280;37612;51.768;21.590;2023-04-24T08:16:42;99056.34;;;20.82;48.20
51528;BME280;37612;51.768;21.590;2023-04-24T08:20:45;99056.98;;;20.88;47.34
51528;BME280;37612;51.768;21.590;2023-04-24T08:24:47;99053.02;;;20.88;47.18
51528;BME280;37612;51.768;21.590;2023-04-24T08:28:50;99053.14;;;21.03;47.07
51528;BME280;37612;51.768;21.590;2023-04-24T08:32:52;99048.97;;;21.14;46.31
51528;BME280;37612;51.768;21.590;2023-04-24T08:36:54;99051.91;;;21.19;46.19
51528;BME280;37612;51.768;21.590;2023-04-24T08:40:58;99044.89;;;21.26;46.28
51528;BME280;37612;51.768;21.590;2023-04-24T08:45:01;99038.36;;;21.36;45.80
51528;BME280;37612;51.768;21.590;2023-04-24T08:49:04;99037.04;;;21.39;44.27
51528;BME280;37612;51.768;21.590;2023-04-24T08:53:07;99041.89;;;21.37;44.22
51528;BME280;37612;51.768;21.590;2023-04-24T08:57:11;99033.18;;;21.47;44.16
51528;BME280;37612;51.768;21.590;2023-04-24T09:01:17;99034.50;;;21.47;43.85
51528;BME280;37612;51.768;21.590;2023-04-24T09:05:21;99032.25;;;21.62;43.78
51528;BME280;37612;51.768;21.590;2023-04-24T09:09:26;99030.13;;;21.72;43.27
51528;BME280;37612;51.768;21.590;2023-04-24T09:13:32;99031.23;;;21.79;43.05
51528;BME280;37612;51.768;21.590;2023-04-24T09:17:36;99026.83;;;21.80;42.11
51528;BME280;37612;51.768;21.590;2023-04-24T09:21:38;99027.66;;;21.77;42.37
51528;BME280;37612;51.768;21.590;2023-04-24T09:25:40;99024.93;;;21.79;42.89
51528;BME280;37612;51.768;21.590;2023-04-24T09:30:09;99015.02;;;21.95;42.73
51528;BME280;37612;51.768;21.590;2023-04-24T09:34:12;99016.38;;;21.75;41.47
51528;BME280;37612;51.768;21.590;2023-04-24T09:38:15;99013.42;;;21.52;42.10
51528;BME280;37612;51.768;21.590;2023-04-24T09:42:17;99010.67;;;21.33;42.68
51528;BME280;37612;51.768;21.590;2023-04-24T09:46:19;99014.63;;;21.25;42.60
51528;BME280;37612;51.768;21.590;2023-04-24T09:50:23;99017.33;;;21.16;42.94
51528;BME280;37612;51.768;21.590;2023-04-24T09:54:25;99015.81;;;21.12;42.65
51528;BME280;37612;51.768;21.590;2023-04-24T09:58:28;99012.23;;;21.06;42.58
51528;BME280;37612;51.768;21.590;2023-04-24T10:02:35;99007.64;;;20.98;42.84
51528;BME280;37612;51.768;21.590;2023-04-24T10:06:37;99002.62;;;20.93;43.08
51528;BME280;37612;51.768;21.590;2023-04-24T10:10:41;99001.02;;;20.86;44.22
51528;BME280;37612;51.768;21.590;2023-04-24T10:14:46;99001.04;;;20.92;43.58
51528;BME280;37612;51.768;21.590;2023-04-24T10:18:49;98994.79;;;20.95;44.13
51528;BME280;37612;51.768;21.590;2023-04-24T10:22:54;98991.45;;;21.00;44.04
51528;BME280;37612;51.768;21.590;2023-04-24T10:26:56;98988.12;;;21.09;44.64
51528;BME280;37612;51.768;21.590;2023-04-24T10:31:00;98980.84;;;21.15;44.21
51528;BME280;37612;51.768;21.590;2023-04-24T10:35:04;98976.46;;;21.24;44.39
51528;BME280;37612;51.768;21.590;2023-04-24T10:39:12;98970.79;;;21.30;44.59
51528;BME280;37612;51.768;21.590;2023-04-24T10:43:17;98970.26;;;21.39;44.33
51528;BME280;37612;51.768;21.590;2023-04-24T10:47:20;98964.62;;;21.43;44.54
51528;BME280;37612;51.768;21.590;2023-04-24T10:51:24;98959.95;;;21.57;44.17
51528;BME280;37612;51.768;21.590;2023-04-24T11:04:31;98948.10;;;21.83;43.77
51528;BME280;37612;51.768;21.590;2023-04-24T11:08:43;98943.96;;;21.85;43.15
51528;BME280;37612;51.768;21.590;2023-04-24T11:12:45;98947.41;;;21.99;43.81
51528;BME280;37612;51.768;21.590;2023-04-24T11:16:54;98940.58;;;22.15;43.11
51528;BME280;37612;51.768;21.590;2023-04-24T11:20:56;98937.55;;;22.32;42.08
51528;BME280;37612;51.768;21.590;2023-04-24T11:25:02;98934.70;;;22.40;41.70
51528;BME280;37612;51.768;21.590;2023-04-24T11:29:07;98929.76;;;22.56;39.96
51528;BME280;37612;51.768;21.590;2023-04-24T11:33:10;98930.41;;;22.58;38.54
51528;BME280;37612;51.768;21.590;2023-04-24T11:37:13;98923.38;;;22.63;38.23
51528;BME280;37612;51.768;21.590;2023-04-24T11:41:15;98924.80;;;22.64;37.36
51528;BME280;37612;51.768;21.590;2023-04-24T11:45:21;98922.96;;;22.70;36.32
51528;BME280;37612;51.768;21.590;2023-04-24T11:49:24;98925.39;;;22.51;36.39
51528;BME280;37612;51.768;21.590;2023-04-24T11:53:26;98920.86;;;22.51;35.00
51528;BME280;37612;51.768;21.590;2023-04-24T11:57:28;98910.98;;;22.54;34.56
51528;BME280;37612;51.768;21.590;2023-04-24T12:01:45;98910.27;;;22.49;33.60
51528;BME280;37612;51.768;21.590;2023-04-24T12:05:47;98911.94;;;22.54;34.03
51528;BME280;37612;51.768;21.590;2023-04-24T12:09:57;98903.80;;;22.67;34.48
51528;BME280;37612;51.768;21.590;2023-04-24T12:14:12;98904.58;;;22.75;33.02
51528;BME280;37612;51.768;21.590;2023-04-24T12:18:15;98903.23;;;22.90;33.37
51528;BME280;37612;51.768;21.590;2023-04-24T12:22:18;98897.85;;;22.81;33.39
51528;BME280;37612;51.768;21.590;2023-04-24T12:26:21;98901.98;;;22.73;32.59
51528;BME280;37612;51.768;21.590;2023-04-24T12:30:27;98893.20;;;22.70;32.80
51528;BME280;37612;51.768;21.590;2023-04-24T12:34:32;98885.73;;;22.69;33.02
51528;BME280;37612;51.768;21.590;2023-04-24T12:38:34;98887.15;;;22.74;33.42
51528;BME280;37612;51.768;21.590;2023-04-24T12:42:47;98886.32;;;22.91;33.12
51528;BME280;37612;51.768;21.590;2023-04-24T12:46:50;98887.89;;;22.99;32.86
51528;BME280;37612;51.768;21.590;2023-04-24T12:50:52;98883.14;;;22.88;32.41
51528;BME280;37612;51.768;21.590;2023-04-24T12:54:56;98877.89;;;22.74;32.45
51528;BME280;37612;51.768;21.590;2023-04-24T12:59:00;98875.20;;;22.68;32.08
51528;BME280;37612;51.768;21.590;2023-04-24T13:03:02;98874.23;;;22.75;32.33
51528;BME280;37612;51.768;21.590;2023-04-24T13:07:05;98865.48;;;22.88;32.20
51528;BME280;37612;51.768;21.590;2023-04-24T13:11:07;98858.77;;;22.70;30.07
51528;BME280;37612;51.768;21.590;2023-04-24T13:15:09;98858.16;;;22.55;30.37
51528;BME280;37612;51.768;21.590;2023-04-24T13:19:12;98855.40;;;22.64;31.34
51528;BME280;37612;51.768;21.590;2023-04-24T13:23:14;98843.14;;;22.74;31.74
51528;BME280;37612;51.768;21.590;2023-04-24T13:27:18;98836.39;;;22.74;31.67
51528;BME280;37612;51.768;21.590;2023-04-24T13:31:20;98835.46;;;22.75;31.48
51528;BME280;37612;51.768;21.590;2023-04-24T13:35:22;98832.05;;;22.83;31.05
51528;BME280;37612;51.768;21.590;2023-04-24T13:39:25;98828.67;;;22.90;30.91
51528;BME280;37612;51.768;21.590;2023-04-24T13:43:27;98818.27;;;23.02;30.29
51528;BME280;37612;51.768;21.590;2023-04-24T13:47:30;98815.63;;;23.07;30.21
51528;BME280;37612;51.768;21.590;2023-04-24T13:51:32;98813.40;;;23.14;29.05
51528;BME280;37612;51.768;21.590;2023-04-24T13:55:34;98811.90;;;23.26;29.34
51528;BME280;37612;51.768;21.590;2023-04-24T13:59:37;98793.55;;;23.31;29.31
51528;BME280;37612;51.768;21.590;2023-04-24T14:03:39;98805.92;;;23.27;30.26
51528;BME280;37612;51.768;21.590;2023-04-24T14:08:01;98801.73;;;23.42;30.22
51528;BME280;37612;51.768;21.590;2023-04-24T14:12:03;98799.69;;;23.42;29.72
51528;BME280;37612;51.768;21.590;2023-04-24T14:16:06;98801.88;;;23.47;29.62
51528;BME280;37612;51.768;21.590;2023-04-24T14:20:08;98803.33;;;23.50;29.26
51528;BME280;37612;51.768;21.590;2023-04-24T14:24:10;98800.85;;;23.46;29.10
51528;BME280;37612;51.768;21.590;2023-04-24T14:28:13;98794.75;;;23.33;29.55
51528;BME280;37612;51.768;21.590;2023-04-24T14:32:15;98800.48;;;23.23;30.35
51528;BME280;37612;51.768;21.590;2023-04-24T14:36:18;98797.61;;;22.80;30.33
51528;BME280;37612;51.768;21.590;2023-04-24T14:40:20;98796.23;;;22.55;30.48
51528;BME280;37612;51.768;21.590;2023-04-24T14:44:23;98791.94;;;22.62;30.81
51528;BME280;37612;51.768;21.590;2023-04-24T14:48:26;98783.77;;;22.92;30.31
51528;BME280;37612;51.768;21.590;2023-04-24T14:52:42;98780.29;;;23.10;30.25
51528;BME280;37612;51.768;21.590;2023-04-24T14:56:45;98779.96;;;22.95;29.58
51528;BME280;37612;51.768;21.590;2023-04-24T15:00:54;98777.19;;;22.72;29.77
51528;BME280;37612;51.768;21.590;2023-04-24T15:05:07;98774.55;;;22.84;29.56
51528;BME280;37612;51.768;21.590;2023-04-24T15:09:10;98770.39;;;23.62;29.31
51528;BME280;37612;51.768;21.590;2023-04-24T15:13:15;98761.04;;;26.52;28.07
51528;BME280;37612;51.768;21.590;2023-04-24T15:17:17;98757.83;;;29.00;26.68
51528;BME280;37612;51.768;21.590;2023-04-24T15:21:19;98753.04;;;30.56;26.05
51528;BME280;37612;51.768;21.590;2023-04-24T15:25:22;98751.02;;;31.11;23.99
51528;BME280;37612;51.768;21.590;2023-04-24T15:29:24;98749.36;;;30.78;24.02
51528;BME280;37612;51.768;21.590;2023-04-24T15:33:28;98744.80;;;31.32;22.27
51528;BME280;37612;51.768;21.590;2023-04-24T15:37:30;98747.93;;;29.72;23.34
51528;BME280;37612;51.768;21.590;2023-04-24T15:41:32;98748.19;;;27.80;22.78
51528;BME280;37612;51.768;21.590;2023-04-24T15:45:34;98745.82;;;27.28;23.33
51528;BME280;37612;51.768;21.590;2023-04-24T15:49:37;98737.62;;;27.22;23.69
51528;BME280;37612;51.768;21.590;2023-04-24T15:53:41;98734.48;;;28.51;23.15
51528;BME280;37612;51.768;21.590;2023-04-24T15:57:44;98734.98;;;29.17;22.46
51528;BME280;37612;51.768;21.590;2023-04-24T16:01:46;98729.30;;;29.28;21.99
51528;BME280;37612;51.768;21.590;2023-04-24T16:05:48;98729.78;;;29.34;21.90
51528;BME280;37612;51.768;21.590;2023-04-24T16:09:51;98727.07;;;29.40;22.10
51528;BME280;37612;51.768;21.590;2023-04-24T16:13:53;98729.68;;;29.04;22.39
51528;BME280;37612;51.768;21.590;2023-04-24T16:17:56;98730.02;;;27.80;22.55
51528;BME280;37612;51.768;21.590;2023-04-24T16:21:59;98729.73;;;27.18;23.35
51528;BME280;37612;51.768;21.590;2023-04-24T16:26:01;98728.30;;;25.48;24.15
51528;BME280;37612;51.768;21.590;2023-04-24T16:30:04;98730.77;;;23.66;25.40
51528;BME280;37612;51.768;21.590;2023-04-24T16:34:06;98733.39;;;22.40;26.69
51528;BME280;37612;51.768;21.590;2023-04-24T16:38:08;98729.58;;;21.57;27.79
51528;BME280;37612;51.768;21.590;2023-04-24T16:42:11;98730.13;;;20.81;28.47
51528;BME280;37612;51.768;21.590;2023-04-24T16:46:16;98731.11;;;20.31;29.20
51528;BME280;37612;51.768;21.590;2023-04-24T16:50:18;98732.87;;;20.07;29.80
51528;BME280;37612;51.768;21.590;2023-04-24T16:54:20;98731.02;;;20.28;29.55
51528;BME280;37612;51.768;21.590;2023-04-24T16:58:22;98729.96;;;20.52;29.66
51528;BME280;37612;51.768;21.590;2023-04-24T17:02:24;98735.96;;;20.47;30.43
51528;BME280;37612;51.768;21.590;2023-04-24T17:06:26;98740.38;;;20.11;30.88
51528;BME280;37612;51.768;21.590;2023-04-24T17:10:28;98744.08;;;19.70;31.29
51528;BME280;37612;51.768;21.590;2023-04-24T17:14:30;98746.72;;;19.30;31.97
51528;BME280;37612;51.768;21.590;2023-04-24T17:18:32;98741.64;;;18.97;32.29
51528;BME280;37612;51.768;21.590;2023-04-24T17:22:34;98742.86;;;18.62;32.93
51528;BME280;37612;51.768;21.590;2023-04-24T17:26:36;98748.24;;;18.28;33.28
51528;BME280;37612;51.768;21.590;2023-04-24T17:30:38;98750.70;;;17.96;34.21
51528;BME280;37612;51.768;21.590;2023-04-24T17:34:40;98750.70;;;17.72;34.60
51528;BME280;37612;51.768;21.590;2023-04-24T17:38:42;98760.40;;;17.47;35.41
51528;BME280;37612;51.768;21.590;2023-04-24T17:42:44;98763.60;;;17.25;35.84
51528;BME280;37612;51.768;21.590;2023-04-24T17:46:46;98765.02;;;17.04;36.27
51528;BME280;37612;51.768;21.590;2023-04-24T17:50:48;98769.48;;;16.83;37.16
51528;BME280;37612;51.768;21.590;2023-04-24T17:54:52;98771.89;;;16.63;37.80
51528;BME280;37612;51.768;21.590;2023-04-24T17:58:59;98775.44;;;16.40;38.94
51528;BME280;37612;51.768;21.590;2023-04-24T18:03:04;98776.63;;;16.21;38.75
51528;BME280;37612;51.768;21.590;2023-04-24T18:07:06;98779.58;;;16.04;39.12
51528;BME280;37612;51.768;21.590;2023-04-24T18:11:08;98779.75;;;15.89;38.82
51528;BME280;37612;51.768;21.590;2023-04-24T18:15:11;98785.50;;;15.80;40.11
51528;BME280;37612;51.768;21.590;2023-04-24T18:19:13;98790.34;;;15.75;40.41
51528;BME280;37612;51.768;21.590;2023-04-24T18:23:16;98792.27;;;15.75;40.91
51528;BME280;37612;51.768;21.590;2023-04-24T18:27:22;98793.38;;;15.78;41.46
51528;BME280;37612;51.768;21.590;2023-04-24T18:31:27;98787.45;;;15.82;41.63
51528;BME280;37612;51.768;21.590;2023-04-24T18:35:37;98786.65;;;15.83;42.31
51528;BME280;37612;51.768;21.590;2023-04-24T18:39:39;98789.88;;;15.85;42.27
51528;BME280;37612;51.768;21.590;2023-04-24T18:43:41;98788.52;;;15.85;42.27
51528;BME280;37612;51.768;21.590;2023-04-24T18:47:46;98788.23;;;15.83;43.03
51528;BME280;37612;51.768;21.590;2023-04-24T18:51:53;98788.60;;;15.81;42.53
51528;BME280;37612;51.768;21.590;2023-04-24T18:55:55;98791.70;;;15.75;43.14
51528;BME280;37612;51.768;21.590;2023-04-24T18:59:58;98790.86;;;15.65;43.03
51528;BME280;37612;51.768;21.590;2023-04-24T19:04:08;98794.53;;;15.53;43.43
51528;BME280;37612;51.768;21.590;2023-04-24T19:08:19;98800.36;;;15.41;43.88
51528;BME280;37612;51.768;21.590;2023-04-24T19:12:32;98804.33;;;15.22;44.60
51528;BME280;37612;51.768;21.590;2023-04-24T19:16:39;98810.29;;;15.06;45.17
51528;BME280;37612;51.768;21.590;2023-04-24T19:20:47;98808.46;;;14.89;45.31
51528;BME280;37612;51.768;21.590;2023-04-24T19:24:51;98808.88;;;14.77;45.63
51528;BME280;37612;51.768;21.590;2023-04-24T19:28:55;98814.73;;;14.61;45.92
51528;BME280;37612;51.768;21.590;2023-04-24T19:33:00;98815.73;;;14.48;47.24
51528;BME280;37612;51.768;21.590;2023-04-24T19:37:05;98811.20;;;14.32;47.15
51528;BME280;37612;51.768;21.590;2023-04-24T19:41:07;98811.55;;;14.21;47.82
51528;BME280;37612;51.768;21.590;2023-04-24T19:45:12;98810.46;;;14.10;47.63
51528;BME280;37612;51.768;21.590;2023-04-24T19:49:23;98809.26;;;14.06;48.47
51528;BME280;37612;51.768;21.590;2023-04-24T19:53:25;98807.80;;;14.05;49.00
51528;BME280;37612;51.768;21.590;2023-04-24T19:57:28;98805.52;;;14.17;49.07
51528;BME280;37612;51.768;21.590;2023-04-24T20:01:31;98808.67;;;14.35;49.50
51528;BME280;37612;51.768;21.590;2023-04-24T20:05:34;98805.59;;;14.45;49.85
51528;BME280;37612;51.768;21.590;2023-04-24T20:09:36;98809.77;;;14.51;50.08
51528;BME280;37612;51.768;21.590;2023-04-24T20:13:38;98808.10;;;14.53;49.70
51528;BME280;37612;51.768;21.590;2023-04-24T20:17:44;98816.33;;;14.52;50.62
51528;BME280;37612;51.768;21.590;2023-04-24T20:21:47;98810.88;;;14.46;50.42
51528;BME280;37612;51.768;21.590;2023-04-24T20:25:51;98809.83;;;14.38;51.13
51528;BME280;37612;51.768;21.590;2023-04-24T20:30:01;98812.61;;;14.34;51.94
51528;BME280;37612;51.768;21.590;2023-04-24T20:34:14;98810.14;;;14.32;52.55
51528;BME280;37612;51.768;21.590;2023-04-24T20:38:18;98809.12;;;14.32;52.61
51528;BME280;37612;51.768;21.590;2023-04-24T20:42:21;98806.34;;;14.31;52.85
51528;BME280;37612;51.768;21.590;2023-04-24T20:46:24;98811.03;;;14.26;54.04
51528;BME280;37612;51.768;21.590;2023-04-24T20:50:36;98811.89;;;14.20;54.47
51528;BME280;37612;51.768;21.590;2023-04-24T20:55:07;98816.33;;;14.17;54.88
51528;BME280;37612;51.768;21.590;2023-04-24T21:03:47;98820.05;;;14.06;56.25
51528;BME280;37612;51.768;21.590;2023-04-24T21:07:56;98815.60;;;13.96;57.21
51528;BME280;37612;51.768;21.590;2023-04-24T21:11:58;98815.71;;;13.88;57.07
51528;BME280;37612;51.768;21.590;2023-04-24T21:20:55;98828.31;;;13.62;57.67
51528;BME280;37612;51.768;21.590;2023-04-24T21:25:43;98832.23;;;13.51;58.11
51528;BME280;37612;51.768;21.590;2023-04-24T21:29:46;98829.38;;;13.41;58.44
51528;BME280;37612;51.768;21.590;2023-04-24T21:33:53;98831.49;;;13.27;58.96
51528;BME280;37612;51.768;21.590;2023-04-24T21:37:55;98834.32;;;13.15;58.95